sensor_id;sensor_type;location;lat;lon;timestamp;P1;durP1;ratioP1;P2;durP2;ratioP2
52964;SDS011;42923;53.220;6.528;2022-09-24T00:00:26;60.58;;;41.85;;
52964;SDS011;42923;53.220;6.528;2022-09-24T00:02:52;58.00;;;44.53;;
52964;SDS011;42923;53.220;6.528;2022-09-24T00:05:17;59.45;;;46.45;;
52964;SDS011;42923;53.220;6.528;2022-09-24T00:07:43;63.40;;;45.17;;
52964;SDS011;42923;53.220;6.528;2022-09-24T00:10:09;61.17;;;45.53;;
52964;SDS011;42923;53.220;6.528;2022-09-24T00:12:35;64.22;;;45.65;;
52964;SDS011;42923;53.220;6.528;2022-09-24T00:15:01;64.20;;;45.17;;
52964;SDS011;42923;53.220;6.528;2022-09-24T00:17:28;70.32;;;48.65;;
52964;SDS011;42923;53.220;6.528;2022-09-24T00:19:53;69.13;;;49.72;;
52964;SDS011;42923;53.220;6.528;2022-09-24T00:22:19;72.50;;;50.53;;
52964;SDS011;42923;53.220;6.528;2022-09-24T00:24:45;66.10;;;47.40;;
52964;SDS011;42923;53.220;6.528;2022-09-24T00:27:29;78.90;;;53.22;;
52964;SDS011;42923;53.220;6.528;2022-09-24T00:29:55;77.65;;;53.70;;
52964;SDS011;42923;53.220;6.528;2022-09-24T00:32:20;81.85;;;54.28;;
52964;SDS011;42923;53.220;6.528;2022-09-24T00:34:48;81.95;;;56.00;;
52964;SDS011;42923;53.220;6.528;2022-09-24T00:37:18;83.20;;;57.25;;
52964;SDS011;42923;53.220;6.528;2022-09-24T00:39:44;90.20;;;54.40;;
52964;SDS011;42923;53.220;6.528;2022-09-24T00:42:13;86.32;;;57.67;;
52964;SDS011;42923;53.220;6.528;2022-09-24T00:47:05;90.50;;;57.72;;
52964;SDS011;42923;53.220;6.528;2022-09-24T00:49:40;86.72;;;60.03;;
52964;SDS011;42923;53.220;6.528;2022-09-24T00:52:06;89.18;;;59.78;;
52964;SDS011;42923;53.220;6.528;2022-09-24T00:54:33;93.85;;;62.83;;
52964;SDS011;42923;53.220;6.528;2022-09-24T00:56:59;98.15;;;61.25;;
52964;SDS011;42923;53.220;6.528;2022-09-24T00:59:25;87.07;;;59.28;;
52964;SDS011;42923;53.220;6.528;2022-09-24T01:01:53;103.57;;;63.83;;
52964;SDS011;42923;53.220;6.528;2022-09-24T01:04:21;116.60;;;67.25;;
52964;SDS011;42923;53.220;6.528;2022-09-24T01:06:49;131.98;;;72.30;;
52964;SDS011;42923;53.220;6.528;2022-09-24T01:09:16;138.00;;;73.85;;
52964;SDS011;42923;53.220;6.528;2022-09-24T01:16:51;154.63;;;75.80;;
52964;SDS011;42923;53.220;6.528;2022-09-24T01:30:52;145.40;;;76.95;;
52964;SDS011;42923;53.220;6.528;2022-09-24T01:33:27;141.88;;;75.88;;
52964;SDS011;42923;53.220;6.528;2022-09-24T01:35:58;155.27;;;74.88;;
52964;SDS011;42923;53.220;6.528;2022-09-24T01:38:31;178.60;;;78.68;;
52964;SDS011;42923;53.220;6.528;2022-09-24T01:41:09;144.00;;;77.25;;
52964;SDS011;42923;53.220;6.528;2022-09-24T01:43:36;168.65;;;78.47;;
52964;SDS011;42923;53.220;6.528;2022-09-24T01:46:04;164.38;;;78.35;;
52964;SDS011;42923;53.220;6.528;2022-09-24T01:48:31;182.70;;;84.15;;
52964;SDS011;42923;53.220;6.528;2022-09-24T01:51:01;160.90;;;80.97;;
52964;SDS011;42923;53.220;6.528;2022-09-24T01:53:39;149.95;;;80.78;;
52964;SDS011;42923;53.220;6.528;2022-09-24T01:56:13;142.52;;;76.13;;
52964;SDS011;42923;53.220;6.528;2022-09-24T01:58:45;161.60;;;78.45;;
52964;SDS011;42923;53.220;6.528;2022-09-24T02:01:18;155.80;;;79.35;;
52964;SDS011;42923;53.220;6.528;2022-09-24T02:03:54;172.57;;;80.88;;
52964;SDS011;42923;53.220;6.528;2022-09-24T02:06:28;153.13;;;80.10;;
52964;SDS011;42923;53.220;6.528;2022-09-24T02:09:02;137.85;;;75.28;;
52964;SDS011;42923;53.220;6.528;2022-09-24T02:11:28;165.32;;;82.93;;
52964;SDS011;42923;53.220;6.528;2022-09-24T02:14:02;175.48;;;83.70;;
52964;SDS011;42923;53.220;6.528;2022-09-24T02:16:43;154.57;;;78.65;;
52964;SDS011;42923;53.220;6.528;2022-09-24T02:19:12;170.38;;;84.82;;
52964;SDS011;42923;53.220;6.528;2022-09-24T02:21:41;159.23;;;84.00;;
52964;SDS011;42923;53.220;6.528;2022-09-24T02:24:12;119.53;;;69.32;;
52964;SDS011;42923;53.220;6.528;2022-09-24T02:26:41;179.75;;;82.72;;
52964;SDS011;42923;53.220;6.528;2022-09-24T02:29:07;213.85;;;82.95;;
52964;SDS011;42923;53.220;6.528;2022-09-24T02:31:34;271.73;;;88.75;;
52964;SDS011;42923;53.220;6.528;2022-09-24T02:34:05;87.72;;;54.15;;
52964;SDS011;42923;53.220;6.528;2022-09-24T02:36:54;206.07;;;79.72;;
52964;SDS011;42923;53.220;6.528;2022-09-24T02:39:24;182.90;;;77.47;;
52964;SDS011;42923;53.220;6.528;2022-09-24T02:41:51;166.93;;;75.15;;
52964;SDS011;42923;53.220;6.528;2022-09-24T02:44:17;242.68;;;77.88;;
52964;SDS011;42923;53.220;6.528;2022-09-24T02:46:44;132.50;;;70.18;;
52964;SDS011;42923;53.220;6.528;2022-09-24T02:49:10;124.40;;;61.53;;
52964;SDS011;42923;53.220;6.528;2022-09-24T02:51:37;128.45;;;56.90;;
52964;SDS011;42923;53.220;6.528;2022-09-24T02:54:03;105.40;;;57.08;;
52964;SDS011;42923;53.220;6.528;2022-09-24T02:56:30;142.27;;;62.78;;
52964;SDS011;42923;53.220;6.528;2022-09-24T02:58:56;126.15;;;58.40;;
52964;SDS011;42923;53.220;6.528;2022-09-24T03:01:22;109.22;;;59.50;;
52964;SDS011;42923;53.220;6.528;2022-09-24T03:03:49;100.35;;;54.47;;
52964;SDS011;42923;53.220;6.528;2022-09-24T03:06:15;278.63;;;66.05;;
52964;SDS011;42923;53.220;6.528;2022-09-24T03:08:41;105.50;;;56.75;;
52964;SDS011;42923;53.220;6.528;2022-09-24T03:11:08;180.57;;;61.92;;
52964;SDS011;42923;53.220;6.528;2022-09-24T03:13:35;187.10;;;66.45;;
52964;SDS011;42923;53.220;6.528;2022-09-24T03:16:02;228.52;;;75.63;;
52964;SDS011;42923;53.220;6.528;2022-09-24T03:18:29;165.18;;;68.35;;
52964;SDS011;42923;53.220;6.528;2022-09-24T03:20:55;138.88;;;68.18;;
52964;SDS011;42923;53.220;6.528;2022-09-24T03:23:25;114.35;;;60.03;;
52964;SDS011;42923;53.220;6.528;2022-09-24T03:25:51;150.38;;;67.53;;
52964;SDS011;42923;53.220;6.528;2022-09-24T03:28:17;143.57;;;66.18;;
52964;SDS011;42923;53.220;6.528;2022-09-24T03:30:43;153.32;;;67.72;;
52964;SDS011;42923;53.220;6.528;2022-09-24T03:36:02;171.10;;;66.85;;
52964;SDS011;42923;53.220;6.528;2022-09-24T03:38:32;143.52;;;64.60;;
52964;SDS011;42923;53.220;6.528;2022-09-24T03:40:58;133.50;;;64.15;;
52964;SDS011;42923;53.220;6.528;2022-09-24T03:43:25;120.45;;;59.00;;
52964;SDS011;42923;53.220;6.528;2022-09-24T03:45:51;120.47;;;58.70;;
52964;SDS011;42923;53.220;6.528;2022-09-24T03:48:18;115.05;;;56.33;;
52964;SDS011;42923;53.220;6.528;2022-09-24T03:50:45;96.30;;;53.85;;
52964;SDS011;42923;53.220;6.528;2022-09-24T03:53:11;149.05;;;61.53;;
52964;SDS011;42923;53.220;6.528;2022-09-24T03:55:42;151.75;;;56.55;;
52964;SDS011;42923;53.220;6.528;2022-09-24T03:58:09;126.07;;;55.25;;
52964;SDS011;42923;53.220;6.528;2022-09-24T04:00:35;131.57;;;54.40;;
52964;SDS011;42923;53.220;6.528;2022-09-24T04:03:01;134.45;;;54.00;;
52964;SDS011;42923;53.220;6.528;2022-09-24T04:05:26;113.22;;;54.30;;
52964;SDS011;42923;53.220;6.528;2022-09-24T04:07:55;143.52;;;57.28;;
52964;SDS011;42923;53.220;6.528;2022-09-24T04:10:21;120.10;;;55.40;;
52964;SDS011;42923;53.220;6.528;2022-09-24T04:12:48;101.30;;;48.20;;
52964;SDS011;42923;53.220;6.528;2022-09-24T04:15:14;89.72;;;42.97;;
52964;SDS011;42923;53.220;6.528;2022-09-24T04:17:47;56.28;;;28.90;;
52964;SDS011;42923;53.220;6.528;2022-09-24T04:20:17;51.25;;;25.77;;
52964;SDS011;42923;53.220;6.528;2022-09-24T04:22:46;36.83;;;19.48;;
52964;SDS011;42923;53.220;6.528;2022-09-24T04:25:16;29.88;;;13.85;;
52964;SDS011;42923;53.220;6.528;2022-09-24T04:27:42;24.52;;;9.73;;
52964;SDS011;42923;53.220;6.528;2022-09-24T04:30:09;22.88;;;8.75;;
52964;SDS011;42923;53.220;6.528;2022-09-24T04:32:37;18.35;;;5.82;;
52964;SDS011;42923;53.220;6.528;2022-09-24T04:35:03;20.55;;;4.93;;
52964;SDS011;42923;53.220;6.528;2022-09-24T04:37:30;17.20;;;4.03;;
52964;SDS011;42923;53.220;6.528;2022-09-24T04:39:55;20.60;;;3.80;;
52964;SDS011;42923;53.220;6.528;2022-09-24T04:42:21;13.98;;;3.40;;
52964;SDS011;42923;53.220;6.528;2022-09-24T04:44:47;14.40;;;3.03;;
52964;SDS011;42923;53.220;6.528;2022-09-24T04:47:13;16.38;;;3.50;;
52964;SDS011;42923;53.220;6.528;2022-09-24T04:49:40;15.40;;;2.92;;
52964;SDS011;42923;53.220;6.528;2022-09-24T04:52:13;13.90;;;2.85;;
52964;SDS011;42923;53.220;6.528;2022-09-24T04:54:39;12.73;;;2.85;;
52964;SDS011;42923;53.220;6.528;2022-09-24T04:57:14;21.83;;;3.75;;
52964;SDS011;42923;53.220;6.528;2022-09-24T04:59:41;21.83;;;2.92;;
52964;SDS011;42923;53.220;6.528;2022-09-24T05:02:08;14.13;;;3.70;;
52964;SDS011;42923;53.220;6.528;2022-09-24T05:04:35;9.48;;;2.72;;
52964;SDS011;42923;53.220;6.528;2022-09-24T05:07:01;14.50;;;3.55;;
52964;SDS011;42923;53.220;6.528;2022-09-24T05:09:27;19.20;;;3.45;;
52964;SDS011;42923;53.220;6.528;2022-09-24T05:11:58;12.13;;;3.35;;
52964;SDS011;42923;53.220;6.528;2022-09-24T05:14:25;10.13;;;2.40;;
52964;SDS011;42923;53.220;6.528;2022-09-24T05:16:50;14.52;;;2.63;;
52964;SDS011;42923;53.220;6.528;2022-09-24T05:19:16;13.25;;;2.40;;
52964;SDS011;42923;53.220;6.528;2022-09-24T05:21:42;11.48;;;2.97;;
52964;SDS011;42923;53.220;6.528;2022-09-24T05:24:08;10.18;;;2.53;;
52964;SDS011;42923;53.220;6.528;2022-09-24T05:26:33;6.15;;;1.98;;
52964;SDS011;42923;53.220;6.528;2022-09-24T05:29:18;12.80;;;2.35;;
52964;SDS011;42923;53.220;6.528;2022-09-24T05:31:44;10.80;;;2.88;;
52964;SDS011;42923;53.220;6.528;2022-09-24T05:34:09;13.35;;;2.50;;
52964;SDS011;42923;53.220;6.528;2022-09-24T05:36:35;9.90;;;2.20;;
52964;SDS011;42923;53.220;6.528;2022-09-24T05:39:02;8.45;;;2.33;;
52964;SDS011;42923;53.220;6.528;2022-09-24T05:41:28;11.20;;;1.95;;
52964;SDS011;42923;53.220;6.528;2022-09-24T05:43:53;14.48;;;3.88;;
52964;SDS011;42923;53.220;6.528;2022-09-24T05:46:21;12.23;;;2.45;;
52964;SDS011;42923;53.220;6.528;2022-09-24T05:48:47;10.82;;;2.70;;
52964;SDS011;42923;53.220;6.528;2022-09-24T05:51:13;10.02;;;2.83;;
52964;SDS011;42923;53.220;6.528;2022-09-24T05:53:39;14.18;;;2.65;;
52964;SDS011;42923;53.220;6.528;2022-09-24T05:56:05;6.20;;;1.80;;
52964;SDS011;42923;53.220;6.528;2022-09-24T05:58:31;9.95;;;2.33;;
52964;SDS011;42923;53.220;6.528;2022-09-24T06:01:00;11.95;;;3.05;;
52964;SDS011;42923;53.220;6.528;2022-09-24T06:03:26;14.00;;;2.97;;
52964;SDS011;42923;53.220;6.528;2022-09-24T06:05:53;17.30;;;3.53;;
52964;SDS011;42923;53.220;6.528;2022-09-24T06:08:29;14.37;;;2.13;;
52964;SDS011;42923;53.220;6.528;2022-09-24T06:11:00;10.57;;;2.60;;
52964;SDS011;42923;53.220;6.528;2022-09-24T06:13:29;14.90;;;2.35;;
52964;SDS011;42923;53.220;6.528;2022-09-24T06:15:59;9.45;;;2.58;;
52964;SDS011;42923;53.220;6.528;2022-09-24T06:18:25;13.57;;;2.85;;
52964;SDS011;42923;53.220;6.528;2022-09-24T06:20:51;12.57;;;2.88;;
52964;SDS011;42923;53.220;6.528;2022-09-24T06:23:17;14.82;;;3.03;;
52964;SDS011;42923;53.220;6.528;2022-09-24T06:25:42;13.45;;;3.65;;
52964;SDS011;42923;53.220;6.528;2022-09-24T06:28:12;9.60;;;3.17;;
52964;SDS011;42923;53.220;6.528;2022-09-24T06:30:39;12.75;;;2.92;;
52964;SDS011;42923;53.220;6.528;2022-09-24T06:33:09;8.23;;;2.95;;
52964;SDS011;42923;53.220;6.528;2022-09-24T06:35:37;17.02;;;3.15;;
52964;SDS011;42923;53.220;6.528;2022-09-24T06:38:07;18.70;;;3.25;;
52964;SDS011;42923;53.220;6.528;2022-09-24T06:40:36;16.88;;;3.45;;
52964;SDS011;42923;53.220;6.528;2022-09-24T06:43:03;9.82;;;2.63;;
52964;SDS011;42923;53.220;6.528;2022-09-24T06:45:30;16.75;;;2.88;;
52964;SDS011;42923;53.220;6.528;2022-09-24T06:47:58;12.18;;;2.78;;
52964;SDS011;42923;53.220;6.528;2022-09-24T06:50:25;10.35;;;2.33;;
52964;SDS011;42923;53.220;6.528;2022-09-24T06:52:53;15.18;;;2.85;;
52964;SDS011;42923;53.220;6.528;2022-09-24T06:55:20;15.25;;;2.03;;
52964;SDS011;42923;53.220;6.528;2022-09-24T06:57:46;15.02;;;2.45;;
52964;SDS011;42923;53.220;6.528;2022-09-24T07:00:12;17.00;;;3.22;;
52964;SDS011;42923;53.220;6.528;2022-09-24T07:02:39;14.68;;;2.80;;
52964;SDS011;42923;53.220;6.528;2022-09-24T07:05:05;15.00;;;3.17;;
52964;SDS011;42923;53.220;6.528;2022-09-24T07:07:32;13.00;;;3.28;;
52964;SDS011;42923;53.220;6.528;2022-09-24T07:09:59;20.42;;;3.70;;
52964;SDS011;42923;53.220;6.528;2022-09-24T07:12:28;16.55;;;4.93;;
52964;SDS011;42923;53.220;6.528;2022-09-24T07:14:55;10.75;;;2.63;;
52964;SDS011;42923;53.220;6.528;2022-09-24T07:17:22;9.45;;;2.22;;
52964;SDS011;42923;53.220;6.528;2022-09-24T07:19:49;12.45;;;2.85;;
52964;SDS011;42923;53.220;6.528;2022-09-24T07:22:15;14.70;;;2.85;;
52964;SDS011;42923;53.220;6.528;2022-09-24T07:24:42;14.40;;;2.92;;
52964;SDS011;42923;53.220;6.528;2022-09-24T07:27:08;13.15;;;2.55;;
52964;SDS011;42923;53.220;6.528;2022-09-24T07:29:34;11.05;;;2.28;;
52964;SDS011;42923;53.220;6.528;2022-09-24T07:32:00;11.20;;;2.58;;
52964;SDS011;42923;53.220;6.528;2022-09-24T07:34:27;14.32;;;3.17;;
52964;SDS011;42923;53.220;6.528;2022-09-24T07:36:54;9.77;;;2.40;;
52964;SDS011;42923;53.220;6.528;2022-09-24T07:39:21;12.70;;;2.40;;
52964;SDS011;42923;53.220;6.528;2022-09-24T07:41:47;10.70;;;2.65;;
52964;SDS011;42923;53.220;6.528;2022-09-24T07:44:19;10.15;;;2.78;;
52964;SDS011;42923;53.220;6.528;2022-09-24T07:46:50;10.93;;;2.35;;
52964;SDS011;42923;53.220;6.528;2022-09-24T07:49:22;13.05;;;2.28;;
52964;SDS011;42923;53.220;6.528;2022-09-24T07:51:48;10.60;;;2.25;;
52964;SDS011;42923;53.220;6.528;2022-09-24T07:54:14;11.15;;;2.53;;
52964;SDS011;42923;53.220;6.528;2022-09-24T07:56:41;7.97;;;2.05;;
52964;SDS011;42923;53.220;6.528;2022-09-24T07:59:07;11.75;;;2.55;;
52964;SDS011;42923;53.220;6.528;2022-09-24T08:01:35;6.13;;;1.98;;
52964;SDS011;42923;53.220;6.528;2022-09-24T08:04:01;12.95;;;1.75;;
52964;SDS011;42923;53.220;6.528;2022-09-24T08:06:29;3.95;;;1.58;;
52964;SDS011;42923;53.220;6.528;2022-09-24T08:08:57;9.77;;;3.25;;
52964;SDS011;42923;53.220;6.528;2022-09-24T08:11:23;13.27;;;2.00;;
52964;SDS011;42923;53.220;6.528;2022-09-24T08:13:49;15.35;;;2.40;;
52964;SDS011;42923;53.220;6.528;2022-09-24T08:16:15;10.23;;;2.20;;
52964;SDS011;42923;53.220;6.528;2022-09-24T08:18:43;13.50;;;2.60;;
52964;SDS011;42923;53.220;6.528;2022-09-24T08:21:09;8.43;;;2.25;;
52964;SDS011;42923;53.220;6.528;2022-09-24T08:23:36;7.95;;;2.15;;
52964;SDS011;42923;53.220;6.528;2022-09-24T08:26:04;7.38;;;1.38;;
52964;SDS011;42923;53.220;6.528;2022-09-24T08:28:30;6.90;;;2.30;;
52964;SDS011;42923;53.220;6.528;2022-09-24T08:30:57;10.40;;;2.75;;
52964;SDS011;42923;53.220;6.528;2022-09-24T08:33:25;10.50;;;2.28;;
52964;SDS011;42923;53.220;6.528;2022-09-24T08:35:51;10.15;;;2.40;;
52964;SDS011;42923;53.220;6.528;2022-09-24T08:38:17;12.00;;;2.60;;
52964;SDS011;42923;53.220;6.528;2022-09-24T08:40:51;5.80;;;1.60;;
52964;SDS011;42923;53.220;6.528;2022-09-24T08:47:11;10.32;;;2.65;;
52964;SDS011;42923;53.220;6.528;2022-09-24T08:49:49;7.57;;;1.88;;
52964;SDS011;42923;53.220;6.528;2022-09-24T08:55:30;9.25;;;1.70;;
52964;SDS011;42923;53.220;6.528;2022-09-24T08:58:13;9.20;;;2.17;;
52964;SDS011;42923;53.220;6.528;2022-09-24T09:00:56;13.25;;;2.72;;
52964;SDS011;42923;53.220;6.528;2022-09-24T09:09:15;7.18;;;1.65;;
52964;SDS011;42923;53.220;6.528;2022-09-24T09:11:47;6.90;;;1.73;;
52964;SDS011;42923;53.220;6.528;2022-09-24T09:14:42;14.70;;;2.33;;
52964;SDS011;42923;53.220;6.528;2022-09-24T09:17:38;7.10;;;2.50;;
52964;SDS011;42923;53.220;6.528;2022-09-24T09:20:20;8.30;;;1.45;;
52964;SDS011;42923;53.220;6.528;2022-09-24T09:22:54;10.48;;;1.98;;
52964;SDS011;42923;53.220;6.528;2022-09-24T09:25:26;10.30;;;1.92;;
52964;SDS011;42923;53.220;6.528;2022-09-24T09:28:03;4.30;;;1.20;;
52964;SDS011;42923;53.220;6.528;2022-09-24T09:30:38;3.28;;;1.27;;
52964;SDS011;42923;53.220;6.528;2022-09-24T09:36:26;3.45;;;1.13;;
52964;SDS011;42923;53.220;6.528;2022-09-24T09:42:38;5.53;;;1.17;;
52964;SDS011;42923;53.220;6.528;2022-09-24T09:47:57;2.63;;;0.90;;
52964;SDS011;42923;53.220;6.528;2022-09-24T09:50:27;4.20;;;1.15;;
52964;SDS011;42923;53.220;6.528;2022-09-24T09:52:54;6.82;;;1.70;;
52964;SDS011;42923;53.220;6.528;2022-09-24T09:55:24;6.63;;;1.30;;
52964;SDS011;42923;53.220;6.528;2022-09-24T09:57:52;7.03;;;1.20;;
52964;SDS011;42923;53.220;6.528;2022-09-24T10:00:35;4.43;;;1.20;;
52964;SDS011;42923;53.220;6.528;2022-09-24T10:03:01;3.42;;;1.10;;
52964;SDS011;42923;53.220;6.528;2022-09-24T10:05:28;4.47;;;1.70;;
52964;SDS011;42923;53.220;6.528;2022-09-24T10:07:55;4.57;;;1.45;;
52964;SDS011;42923;53.220;6.528;2022-09-24T10:10:24;5.55;;;1.77;;
52964;SDS011;42923;53.220;6.528;2022-09-24T10:13:04;2.63;;;1.00;;
52964;SDS011;42923;53.220;6.528;2022-09-24T10:15:38;4.95;;;1.20;;
52964;SDS011;42923;53.220;6.528;2022-09-24T10:18:16;5.25;;;1.60;;
52964;SDS011;42923;53.220;6.528;2022-09-24T10:20:47;4.95;;;1.30;;
52964;SDS011;42923;53.220;6.528;2022-09-24T10:23:17;10.02;;;1.50;;
52964;SDS011;42923;53.220;6.528;2022-09-24T10:25:49;7.50;;;1.80;;
52964;SDS011;42923;53.220;6.528;2022-09-24T10:28:19;3.40;;;1.15;;
52964;SDS011;42923;53.220;6.528;2022-09-24T10:31:05;5.28;;;1.35;;
52964;SDS011;42923;53.220;6.528;2022-09-24T10:33:39;9.15;;;1.30;;
52964;SDS011;42923;53.220;6.528;2022-09-24T10:36:13;5.25;;;1.25;;
52964;SDS011;42923;53.220;6.528;2022-09-24T10:38:39;4.75;;;1.73;;
52964;SDS011;42923;53.220;6.528;2022-09-24T10:41:14;7.13;;;1.70;;
52964;SDS011;42923;53.220;6.528;2022-09-24T10:43:50;5.68;;;1.75;;
52964;SDS011;42923;53.220;6.528;2022-09-24T10:50:20;5.93;;;1.80;;
52964;SDS011;42923;53.220;6.528;2022-09-24T11:10:03;7.03;;;1.73;;
52964;SDS011;42923;53.220;6.528;2022-09-24T11:15:31;7.55;;;2.08;;
52964;SDS011;42923;53.220;6.528;2022-09-24T11:21:18;9.95;;;2.00;;
52964;SDS011;42923;53.220;6.528;2022-09-24T11:29:53;4.87;;;1.37;;
52964;SDS011;42923;53.220;6.528;2022-09-24T11:32:32;9.35;;;2.67;;
52964;SDS011;42923;53.220;6.528;2022-09-24T11:35:26;11.05;;;2.40;;
52964;SDS011;42923;53.220;6.528;2022-09-24T11:41:06;3.60;;;1.33;;
52964;SDS011;42923;53.220;6.528;2022-09-24T11:44:18;4.78;;;1.33;;
52964;SDS011;42923;53.220;6.528;2022-09-24T11:49:58;5.95;;;1.30;;
52964;SDS011;42923;53.220;6.528;2022-09-24T11:55:20;6.75;;;1.30;;
52964;SDS011;42923;53.220;6.528;2022-09-24T12:00:30;7.88;;;1.50;;
52964;SDS011;42923;53.220;6.528;2022-09-24T12:03:01;6.97;;;1.42;;
52964;SDS011;42923;53.220;6.528;2022-09-24T12:05:38;4.03;;;1.20;;
52964;SDS011;42923;53.220;6.528;2022-09-24T12:08:16;2.85;;;1.25;;
52964;SDS011;42923;53.220;6.528;2022-09-24T12:10:51;4.65;;;1.17;;
52964;SDS011;42923;53.220;6.528;2022-09-24T12:16:08;6.30;;;1.10;;
52964;SDS011;42923;53.220;6.528;2022-09-24T12:18:58;3.80;;;1.15;;
52964;SDS011;42923;53.220;6.528;2022-09-24T12:21:39;4.57;;;1.58;;
52964;SDS011;42923;53.220;6.528;2022-09-24T12:24:16;4.30;;;1.58;;
52964;SDS011;42923;53.220;6.528;2022-09-24T12:26:46;8.20;;;1.58;;
52964;SDS011;42923;53.220;6.528;2022-09-24T12:29:29;5.75;;;1.20;;
52964;SDS011;42923;53.220;6.528;2022-09-24T12:38:15;2.75;;;0.98;;
52964;SDS011;42923;53.220;6.528;2022-09-24T12:49:18;6.28;;;1.13;;
52964;SDS011;42923;53.220;6.528;2022-09-24T12:51:48;3.58;;;1.60;;
52964;SDS011;42923;53.220;6.528;2022-09-24T12:56:50;5.35;;;1.20;;
52964;SDS011;42923;53.220;6.528;2022-09-24T12:59:23;3.60;;;1.33;;
52964;SDS011;42923;53.220;6.528;2022-09-24T13:01:51;5.88;;;1.25;;
52964;SDS011;42923;53.220;6.528;2022-09-24T13:06:43;6.75;;;1.35;;
52964;SDS011;42923;53.220;6.528;2022-09-24T13:14:51;5.18;;;1.40;;
52964;SDS011;42923;53.220;6.528;2022-09-24T13:17:25;4.43;;;1.30;;
52964;SDS011;42923;53.220;6.528;2022-09-24T13:19:55;2.60;;;1.00;;
52964;SDS011;42923;53.220;6.528;2022-09-24T13:22:34;3.10;;;0.90;;
52964;SDS011;42923;53.220;6.528;2022-09-24T13:27:53;7.15;;;1.65;;
52964;SDS011;42923;53.220;6.528;2022-09-24T13:30:35;4.53;;;0.95;;
52964;SDS011;42923;53.220;6.528;2022-09-24T13:35:38;8.07;;;1.67;;
52964;SDS011;42923;53.220;6.528;2022-09-24T13:44:10;4.80;;;1.42;;
52964;SDS011;42923;53.220;6.528;2022-09-24T13:46:42;8.27;;;1.58;;
52964;SDS011;42923;53.220;6.528;2022-09-24T13:49:14;5.13;;;1.55;;
52964;SDS011;42923;53.220;6.528;2022-09-24T13:51:44;8.82;;;1.60;;
52964;SDS011;42923;53.220;6.528;2022-09-24T13:56:57;11.10;;;1.70;;
52964;SDS011;42923;53.220;6.528;2022-09-24T13:59:26;13.75;;;2.08;;
52964;SDS011;42923;53.220;6.528;2022-09-24T14:01:52;5.68;;;1.30;;
52964;SDS011;42923;53.220;6.528;2022-09-24T14:04:19;5.63;;;1.70;;
52964;SDS011;42923;53.220;6.528;2022-09-24T14:06:53;6.32;;;1.50;;
52964;SDS011;42923;53.220;6.528;2022-09-24T14:09:26;6.65;;;2.38;;
52964;SDS011;42923;53.220;6.528;2022-09-24T14:11:53;9.13;;;1.75;;
52964;SDS011;42923;53.220;6.528;2022-09-24T14:14:22;9.30;;;1.42;;
52964;SDS011;42923;53.220;6.528;2022-09-24T14:16:51;5.32;;;1.90;;
52964;SDS011;42923;53.220;6.528;2022-09-24T14:19:19;8.35;;;1.60;;
52964;SDS011;42923;53.220;6.528;2022-09-24T14:21:56;7.47;;;1.85;;
52964;SDS011;42923;53.220;6.528;2022-09-24T14:24:30;6.00;;;1.75;;
52964;SDS011;42923;53.220;6.528;2022-09-24T14:27:07;5.40;;;1.92;;
52964;SDS011;42923;53.220;6.528;2022-09-24T14:29:44;9.27;;;2.08;;
52964;SDS011;42923;53.220;6.528;2022-09-24T14:32:30;6.25;;;1.55;;
52964;SDS011;42923;53.220;6.528;2022-09-24T14:35:12;9.02;;;2.03;;
52964;SDS011;42923;53.220;6.528;2022-09-24T14:37:50;11.30;;;2.25;;
52964;SDS011;42923;53.220;6.528;2022-09-24T14:40:24;3.80;;;1.60;;
52964;SDS011;42923;53.220;6.528;2022-09-24T14:42:55;8.75;;;1.80;;
52964;SDS011;42923;53.220;6.528;2022-09-24T14:45:25;8.30;;;1.50;;
52964;SDS011;42923;53.220;6.528;2022-09-24T14:47:59;6.68;;;1.92;;
52964;SDS011;42923;53.220;6.528;2022-09-24T14:50:37;10.48;;;2.10;;
52964;SDS011;42923;53.220;6.528;2022-09-24T14:55:54;4.10;;;1.20;;
52964;SDS011;42923;53.220;6.528;2022-09-24T15:00:51;3.85;;;1.38;;
52964;SDS011;42923;53.220;6.528;2022-09-24T15:03:25;7.57;;;2.55;;
52964;SDS011;42923;53.220;6.528;2022-09-24T15:06:00;9.77;;;2.65;;
52964;SDS011;42923;53.220;6.528;2022-09-24T15:08:28;13.50;;;1.70;;
52964;SDS011;42923;53.220;6.528;2022-09-24T15:10:54;8.13;;;1.70;;
52964;SDS011;42923;53.220;6.528;2022-09-24T15:13:34;7.68;;;1.85;;
52964;SDS011;42923;53.220;6.528;2022-09-24T15:16:20;8.32;;;2.03;;
52964;SDS011;42923;53.220;6.528;2022-09-24T15:21:31;7.07;;;2.05;;
52964;SDS011;42923;53.220;6.528;2022-09-24T15:24:00;11.75;;;2.67;;
52964;SDS011;42923;53.220;6.528;2022-09-24T15:26:33;7.60;;;2.30;;
52964;SDS011;42923;53.220;6.528;2022-09-24T15:29:01;7.90;;;3.33;;
52964;SDS011;42923;53.220;6.528;2022-09-24T15:31:28;18.35;;;2.42;;
52964;SDS011;42923;53.220;6.528;2022-09-24T15:33:54;12.55;;;2.53;;
52964;SDS011;42923;53.220;6.528;2022-09-24T15:36:22;13.20;;;2.67;;
52964;SDS011;42923;53.220;6.528;2022-09-24T15:38:50;8.07;;;2.45;;
52964;SDS011;42923;53.220;6.528;2022-09-24T15:41:16;11.15;;;2.20;;
52964;SDS011;42923;53.220;6.528;2022-09-24T15:43:43;7.65;;;2.03;;
52964;SDS011;42923;53.220;6.528;2022-09-24T15:46:10;8.13;;;2.10;;
52964;SDS011;42923;53.220;6.528;2022-09-24T15:48:36;13.20;;;2.25;;
52964;SDS011;42923;53.220;6.528;2022-09-24T15:51:02;11.82;;;3.10;;
52964;SDS011;42923;53.220;6.528;2022-09-24T15:53:28;9.05;;;2.67;;
52964;SDS011;42923;53.220;6.528;2022-09-24T15:55:56;6.57;;;1.92;;
52964;SDS011;42923;53.220;6.528;2022-09-24T15:58:25;9.63;;;3.00;;
52964;SDS011;42923;53.220;6.528;2022-09-24T16:00:51;10.70;;;2.90;;
52964;SDS011;42923;53.220;6.528;2022-09-24T16:03:18;6.65;;;2.05;;
52964;SDS011;42923;53.220;6.528;2022-09-24T16:05:56;9.75;;;2.50;;
52964;SDS011;42923;53.220;6.528;2022-09-24T16:08:26;10.40;;;2.58;;
52964;SDS011;42923;53.220;6.528;2022-09-24T16:10:53;9.50;;;2.10;;
52964;SDS011;42923;53.220;6.528;2022-09-24T16:13:18;11.18;;;2.35;;
52964;SDS011;42923;53.220;6.528;2022-09-24T16:15:47;13.05;;;2.42;;
52964;SDS011;42923;53.220;6.528;2022-09-24T16:18:13;7.43;;;1.85;;
52964;SDS011;42923;53.220;6.528;2022-09-24T16:20:41;13.55;;;2.85;;
52964;SDS011;42923;53.220;6.528;2022-09-24T16:23:13;10.98;;;1.90;;
52964;SDS011;42923;53.220;6.528;2022-09-24T16:25:53;7.35;;;2.25;;
52964;SDS011;42923;53.220;6.528;2022-09-24T16:28:20;2.58;;;0.95;;
52964;SDS011;42923;53.220;6.528;2022-09-24T16:30:46;5.40;;;1.30;;
52964;SDS011;42923;53.220;6.528;2022-09-24T16:33:12;7.18;;;2.08;;
52964;SDS011;42923;53.220;6.528;2022-09-24T16:35:38;8.40;;;1.83;;
52964;SDS011;42923;53.220;6.528;2022-09-24T16:38:04;5.38;;;1.98;;
52964;SDS011;42923;53.220;6.528;2022-09-24T16:40:29;6.95;;;1.40;;
52964;SDS011;42923;53.220;6.528;2022-09-24T16:42:57;10.38;;;1.52;;
52964;SDS011;42923;53.220;6.528;2022-09-24T16:45:23;12.23;;;2.10;;
52964;SDS011;42923;53.220;6.528;2022-09-24T16:47:48;6.55;;;1.50;;
52964;SDS011;42923;53.220;6.528;2022-09-24T16:50:14;8.05;;;1.90;;
52964;SDS011;42923;53.220;6.528;2022-09-24T16:52:40;7.45;;;1.70;;
52964;SDS011;42923;53.220;6.528;2022-09-24T16:55:09;8.55;;;1.88;;
52964;SDS011;42923;53.220;6.528;2022-09-24T16:57:35;7.80;;;1.63;;
52964;SDS011;42923;53.220;6.528;2022-09-24T17:00:02;8.32;;;1.90;;
52964;SDS011;42923;53.220;6.528;2022-09-24T17:02:31;10.10;;;1.88;;
52964;SDS011;42923;53.220;6.528;2022-09-24T17:04:57;5.05;;;1.95;;
52964;SDS011;42923;53.220;6.528;2022-09-24T17:07:23;8.30;;;1.60;;